Tucson, AZ (85749)

5:46 AM MST on July 27, 2016 (GMT -0700)
| | Change Station

Elev -9999 ft 0.00 °N, 0.00 °E | Updated

Clear
Clear
89 °F
Feels Like 91 °F
N
4
Wind Variable Wind from SW
Gusts mph

Today
High -- | Low -- °F
--% Chance of Precip.
Yesterday
High -- | Low -- °F
Precip. -- in
Pressure 29.83 in
Visibility 10.0 miles
Clouds Few 4400 ft
Scattered Clouds 12000 ft
Overcast 14000 ft
Heat Index 91 °F
Dew Point 64 °F
Humidity 43%
Rainfall --
Snow Depth Not available.
5:34 AM 7:23 PM
Last Quarter, 43% visible
METAR KDMA 271158Z AUTO 15006KT 10SM FEW044 SCT120 OVC140 26/21 A2998 RMK AO2 SLP101 60001 70038 T02560214 10267 20246 53013 $
Pressure 29.83 in
Visibility 10.0 miles
Clouds Few 4400 ft
Scattered Clouds 12000 ft
Overcast 14000 ft
Heat Index 91 °F
Dew Point 64 °F
Humidity 43%
Rainfall --
Snow Depth Not available.
5:34 AM 7:23 PM
Last Quarter, 43% visible
METAR KDMA 271158Z AUTO 15006KT 10SM FEW044 SCT120 OVC140 26/21 A2998 RMK AO2 SLP101 60001 70038 T02560214 10267 20246 53013 $

10-Day Weather Forecast

Almanac

Astronomy

Jul. 27, 2016 Rise Set
Actual Time
Civil Twilight
Nautical Twilight
Astronomical Twilight
Moon
Length of Visible Light
Length of Day
Tomorrow will be .
, % of the Moon is Illuminated

Today's Extremes

State Highs State Lows

Community

WunderPhotos

Upload Photos

1,927,841 photos uploaded!

WunderBlog® & News

Nearby

Air Quality

  Air Quality AQ Index Pollutant
Not available.

Snow Depth

Station Depth Elevation

Earthquake Activity

City Distance Mag. Time & Date
Minimum magnitude displayed is 2.5.

Coastal Water Temperatures

Place Temperature

Stations

Nearby Weather Stations

Station Location Temp. Windchill Dew Point Humidity Wind Precip. Elev Updated Type
                   

Watches & Warnings

There are currently no watches in effect.